Helmuth, New York
Current Conditions -  °F | °C
As of 8:53 PM on Monday 20 Oct 2014 (Local Time) from KDKK Reporting Station
Light Rain Light Rain  
Wind Chill: 52°   Ceiling: 3700
Heat Index: 52°   Visibility: 10mi
Dew Point: 46°   Wind: 7mph
Humidity: 80%   Direction: 240°WSW
Pressure: 29.83"   Gusts: 22mph
Location:  42.4964°N, 78.8604°W
Report Text: KDKK 210053Z AUTO 24006G19KT 10SM -RA OVC037 11/08 A2983 RMK AO2 RAB47 SLP104 P0000 T01110078
Loading
Personal Weather Stations






























Interactive Weather Map
Tropical Storm Tracking
New forecast layout! Learn more

10-Day Weather Forecast

Advertisements
Track Severe Weather on mobile